sensor_id;sensor_type;location;lat;lon;timestamp;P1;durP1;ratioP1;P2;durP2;ratioP2
64351;SDS011;50680;52.626;-8.668;2023-04-24T00:01:54;36.72;;;13.63;;
64351;SDS011;50680;52.626;-8.668;2023-04-24T00:04:22;31.85;;;13.55;;
64351;SDS011;50680;52.626;-8.668;2023-04-24T00:06:52;41.05;;;13.43;;
64351;SDS011;50680;52.626;-8.668;2023-04-24T00:09:23;30.98;;;13.27;;
64351;SDS011;50680;52.626;-8.668;2023-04-24T00:11:50;37.65;;;12.88;;
64351;SDS011;50680;52.626;-8.668;2023-04-24T00:14:17;29.33;;;13.10;;
64351;SDS011;50680;52.626;-8.668;2023-04-24T00:16:44;28.67;;;12.07;;
64351;SDS011;50680;52.626;-8.668;2023-04-24T00:19:11;33.42;;;12.32;;
64351;SDS011;50680;52.626;-8.668;2023-04-24T00:21:39;34.40;;;12.75;;
64351;SDS011;50680;52.626;-8.668;2023-04-24T00:24:07;36.83;;;15.35;;
64351;SDS011;50680;52.626;-8.668;2023-04-24T00:26:37;29.20;;;12.95;;
64351;SDS011;50680;52.626;-8.668;2023-04-24T00:29:04;29.70;;;11.88;;
64351;SDS011;50680;52.626;-8.668;2023-04-24T00:31:31;26.13;;;11.52;;
64351;SDS011;50680;52.626;-8.668;2023-04-24T00:33:57;27.30;;;11.25;;
64351;SDS011;50680;52.626;-8.668;2023-04-24T00:36:24;24.70;;;10.32;;
64351;SDS011;50680;52.626;-8.668;2023-04-24T00:38:51;32.92;;;10.30;;
64351;SDS011;50680;52.626;-8.668;2023-04-24T00:41:18;24.35;;;9.73;;
64351;SDS011;50680;52.626;-8.668;2023-04-24T00:43:45;23.20;;;8.52;;
64351;SDS011;50680;52.626;-8.668;2023-04-24T00:46:12;20.35;;;8.18;;
64351;SDS011;50680;52.626;-8.668;2023-04-24T00:48:40;24.65;;;8.38;;
64351;SDS011;50680;52.626;-8.668;2023-04-24T00:51:07;29.95;;;7.43;;
64351;SDS011;50680;52.626;-8.668;2023-04-24T00:53:34;23.10;;;7.50;;
64351;SDS011;50680;52.626;-8.668;2023-04-24T00:56:01;19.48;;;7.78;;
64351;SDS011;50680;52.626;-8.668;2023-04-24T00:58:28;23.25;;;8.00;;
64351;SDS011;50680;52.626;-8.668;2023-04-24T01:00:57;30.40;;;9.00;;
64351;SDS011;50680;52.626;-8.668;2023-04-24T01:03:26;21.15;;;7.28;;
64351;SDS011;50680;52.626;-8.668;2023-04-24T01:05:57;26.65;;;7.72;;
64351;SDS011;50680;52.626;-8.668;2023-04-24T01:08:24;20.98;;;7.40;;
64351;SDS011;50680;52.626;-8.668;2023-04-24T01:10:52;19.67;;;6.63;;
64351;SDS011;50680;52.626;-8.668;2023-04-24T01:13:19;16.48;;;7.05;;
64351;SDS011;50680;52.626;-8.668;2023-04-24T01:15:47;20.90;;;6.55;;
64351;SDS011;50680;52.626;-8.668;2023-04-24T01:18:14;25.60;;;7.30;;
64351;SDS011;50680;52.626;-8.668;2023-04-24T01:20:42;21.25;;;7.68;;
64351;SDS011;50680;52.626;-8.668;2023-04-24T01:23:13;18.40;;;7.05;;
64351;SDS011;50680;52.626;-8.668;2023-04-24T01:25:39;22.45;;;7.18;;
64351;SDS011;50680;52.626;-8.668;2023-04-24T01:28:06;25.98;;;7.07;;
64351;SDS011;50680;52.626;-8.668;2023-04-24T01:30:33;24.00;;;7.35;;
64351;SDS011;50680;52.626;-8.668;2023-04-24T01:33:00;21.00;;;7.57;;
64351;SDS011;50680;52.626;-8.668;2023-04-24T01:35:27;23.55;;;7.47;;
64351;SDS011;50680;52.626;-8.668;2023-04-24T01:37:54;21.08;;;7.75;;
64351;SDS011;50680;52.626;-8.668;2023-04-24T01:40:21;28.35;;;7.90;;
64351;SDS011;50680;52.626;-8.668;2023-04-24T01:42:48;26.77;;;8.27;;
64351;SDS011;50680;52.626;-8.668;2023-04-24T01:45:15;30.90;;;8.13;;
64351;SDS011;50680;52.626;-8.668;2023-04-24T01:47:42;32.72;;;8.48;;
64351;SDS011;50680;52.626;-8.668;2023-04-24T01:50:10;31.90;;;8.70;;
64351;SDS011;50680;52.626;-8.668;2023-04-24T01:52:37;29.75;;;7.82;;
64351;SDS011;50680;52.626;-8.668;2023-04-24T01:55:04;24.05;;;8.23;;
64351;SDS011;50680;52.626;-8.668;2023-04-24T01:57:33;20.42;;;7.85;;
64351;SDS011;50680;52.626;-8.668;2023-04-24T02:00:01;26.02;;;7.45;;
64351;SDS011;50680;52.626;-8.668;2023-04-24T02:02:30;22.45;;;6.60;;
64351;SDS011;50680;52.626;-8.668;2023-04-24T02:04:58;23.58;;;6.82;;
64351;SDS011;50680;52.626;-8.668;2023-04-24T02:07:24;24.55;;;5.32;;
64351;SDS011;50680;52.626;-8.668;2023-04-24T02:09:51;25.67;;;5.43;;
64351;SDS011;50680;52.626;-8.668;2023-04-24T02:12:18;25.38;;;4.68;;
64351;SDS011;50680;52.626;-8.668;2023-04-24T02:14:45;17.95;;;4.57;;
64351;SDS011;50680;52.626;-8.668;2023-04-24T02:17:12;30.33;;;5.68;;
64351;SDS011;50680;52.626;-8.668;2023-04-24T02:19:39;23.15;;;4.65;;
64351;SDS011;50680;52.626;-8.668;2023-04-24T02:22:06;16.98;;;4.18;;
64351;SDS011;50680;52.626;-8.668;2023-04-24T02:24:33;19.08;;;4.03;;
64351;SDS011;50680;52.626;-8.668;2023-04-24T02:27:00;19.45;;;4.47;;
64351;SDS011;50680;52.626;-8.668;2023-04-24T02:29:28;15.02;;;3.90;;
64351;SDS011;50680;52.626;-8.668;2023-04-24T02:31:55;23.02;;;4.60;;
64351;SDS011;50680;52.626;-8.668;2023-04-24T02:34:22;20.38;;;3.97;;
64351;SDS011;50680;52.626;-8.668;2023-04-24T02:36:49;26.42;;;4.47;;
64351;SDS011;50680;52.626;-8.668;2023-04-24T02:39:16;33.25;;;5.63;;
64351;SDS011;50680;52.626;-8.668;2023-04-24T02:41:43;16.67;;;4.30;;
64351;SDS011;50680;52.626;-8.668;2023-04-24T02:44:10;20.00;;;3.75;;
64351;SDS011;50680;52.626;-8.668;2023-04-24T02:46:36;22.63;;;4.85;;
64351;SDS011;50680;52.626;-8.668;2023-04-24T02:49:03;17.92;;;4.63;;
64351;SDS011;50680;52.626;-8.668;2023-04-24T02:51:30;17.15;;;4.65;;
64351;SDS011;50680;52.626;-8.668;2023-04-24T02:53:57;23.33;;;4.75;;
64351;SDS011;50680;52.626;-8.668;2023-04-24T02:56:24;17.13;;;4.53;;
64351;SDS011;50680;52.626;-8.668;2023-04-24T02:58:51;30.80;;;5.65;;
64351;SDS011;50680;52.626;-8.668;2023-04-24T03:01:18;22.90;;;5.35;;
64351;SDS011;50680;52.626;-8.668;2023-04-24T03:03:45;18.75;;;4.45;;
64351;SDS011;50680;52.626;-8.668;2023-04-24T03:06:12;25.10;;;5.07;;
64351;SDS011;50680;52.626;-8.668;2023-04-24T03:08:38;17.95;;;4.20;;
64351;SDS011;50680;52.626;-8.668;2023-04-24T03:11:05;14.82;;;4.40;;
64351;SDS011;50680;52.626;-8.668;2023-04-24T03:13:32;18.73;;;4.20;;
64351;SDS011;50680;52.626;-8.668;2023-04-24T03:15:59;24.63;;;5.00;;
64351;SDS011;50680;52.626;-8.668;2023-04-24T03:18:26;22.38;;;5.25;;
64351;SDS011;50680;52.626;-8.668;2023-04-24T03:20:53;30.83;;;5.63;;
64351;SDS011;50680;52.626;-8.668;2023-04-24T03:23:19;27.73;;;5.50;;
64351;SDS011;50680;52.626;-8.668;2023-04-24T03:25:46;24.25;;;4.88;;
64351;SDS011;50680;52.626;-8.668;2023-04-24T03:28:14;26.58;;;5.35;;
64351;SDS011;50680;52.626;-8.668;2023-04-24T03:30:41;23.67;;;4.93;;
64351;SDS011;50680;52.626;-8.668;2023-04-24T03:33:08;19.17;;;4.53;;
64351;SDS011;50680;52.626;-8.668;2023-04-24T03:35:36;28.33;;;4.95;;
64351;SDS011;50680;52.626;-8.668;2023-04-24T03:38:02;22.67;;;4.85;;
64351;SDS011;50680;52.626;-8.668;2023-04-24T03:40:31;18.65;;;4.75;;
64351;SDS011;50680;52.626;-8.668;2023-04-24T03:42:59;25.35;;;4.72;;
64351;SDS011;50680;52.626;-8.668;2023-04-24T03:45:26;18.08;;;4.80;;
64351;SDS011;50680;52.626;-8.668;2023-04-24T03:47:53;15.20;;;4.88;;
64351;SDS011;50680;52.626;-8.668;2023-04-24T03:50:20;16.02;;;4.13;;
64351;SDS011;50680;52.626;-8.668;2023-04-24T03:52:47;20.27;;;4.25;;
64351;SDS011;50680;52.626;-8.668;2023-04-24T03:55:14;21.27;;;4.95;;
64351;SDS011;50680;52.626;-8.668;2023-04-24T03:57:41;16.30;;;4.18;;
64351;SDS011;50680;52.626;-8.668;2023-04-24T04:00:07;13.50;;;4.85;;
64351;SDS011;50680;52.626;-8.668;2023-04-24T04:02:35;22.48;;;4.82;;
64351;SDS011;50680;52.626;-8.668;2023-04-24T04:05:02;13.63;;;3.90;;
64351;SDS011;50680;52.626;-8.668;2023-04-24T04:07:29;18.75;;;4.07;;
64351;SDS011;50680;52.626;-8.668;2023-04-24T04:09:56;19.98;;;4.13;;
64351;SDS011;50680;52.626;-8.668;2023-04-24T04:12:23;17.60;;;4.25;;
64351;SDS011;50680;52.626;-8.668;2023-04-24T04:14:50;19.25;;;4.60;;
64351;SDS011;50680;52.626;-8.668;2023-04-24T04:17:17;21.33;;;4.85;;
64351;SDS011;50680;52.626;-8.668;2023-04-24T04:19:44;21.98;;;4.57;;
64351;SDS011;50680;52.626;-8.668;2023-04-24T04:22:11;16.88;;;4.28;;
64351;SDS011;50680;52.626;-8.668;2023-04-24T04:24:38;20.45;;;4.95;;
64351;SDS011;50680;52.626;-8.668;2023-04-24T04:27:07;26.95;;;5.10;;
64351;SDS011;50680;52.626;-8.668;2023-04-24T04:29:34;19.77;;;5.35;;
64351;SDS011;50680;52.626;-8.668;2023-04-24T04:32:02;16.73;;;4.68;;
64351;SDS011;50680;52.626;-8.668;2023-04-24T04:34:29;24.05;;;4.78;;
64351;SDS011;50680;52.626;-8.668;2023-04-24T04:36:56;21.80;;;4.80;;
64351;SDS011;50680;52.626;-8.668;2023-04-24T04:39:25;20.58;;;4.35;;
64351;SDS011;50680;52.626;-8.668;2023-04-24T04:41:54;19.38;;;5.18;;
64351;SDS011;50680;52.626;-8.668;2023-04-24T04:44:21;12.50;;;4.47;;
64351;SDS011;50680;52.626;-8.668;2023-04-24T04:46:48;19.90;;;4.65;;
64351;SDS011;50680;52.626;-8.668;2023-04-24T04:49:14;20.88;;;5.28;;
64351;SDS011;50680;52.626;-8.668;2023-04-24T04:51:43;20.23;;;4.90;;
64351;SDS011;50680;52.626;-8.668;2023-04-24T04:54:09;22.27;;;4.43;;
64351;SDS011;50680;52.626;-8.668;2023-04-24T04:56:36;18.60;;;4.32;;
64351;SDS011;50680;52.626;-8.668;2023-04-24T04:59:03;24.00;;;5.72;;
64351;SDS011;50680;52.626;-8.668;2023-04-24T05:01:30;16.10;;;4.63;;
64351;SDS011;50680;52.626;-8.668;2023-04-24T05:03:57;16.60;;;4.55;;
64351;SDS011;50680;52.626;-8.668;2023-04-24T05:06:24;21.83;;;5.18;;
64351;SDS011;50680;52.626;-8.668;2023-04-24T05:08:52;17.98;;;4.45;;
64351;SDS011;50680;52.626;-8.668;2023-04-24T05:13:50;22.92;;;4.90;;
64351;SDS011;50680;52.626;-8.668;2023-04-24T05:16:17;20.65;;;5.10;;
64351;SDS011;50680;52.626;-8.668;2023-04-24T05:18:44;15.77;;;4.97;;
64351;SDS011;50680;52.626;-8.668;2023-04-24T05:21:11;14.57;;;4.85;;
64351;SDS011;50680;52.626;-8.668;2023-04-24T05:23:38;16.02;;;4.85;;
64351;SDS011;50680;52.626;-8.668;2023-04-24T05:26:05;15.93;;;5.28;;
64351;SDS011;50680;52.626;-8.668;2023-04-24T05:28:33;18.77;;;5.28;;
64351;SDS011;50680;52.626;-8.668;2023-04-24T05:31:00;10.32;;;4.50;;
64351;SDS011;50680;52.626;-8.668;2023-04-24T05:33:27;16.67;;;4.82;;
64351;SDS011;50680;52.626;-8.668;2023-04-24T05:35:54;14.23;;;5.18;;
64351;SDS011;50680;52.626;-8.668;2023-04-24T05:38:21;21.75;;;6.10;;
64351;SDS011;50680;52.626;-8.668;2023-04-24T05:40:47;30.00;;;6.15;;
64351;SDS011;50680;52.626;-8.668;2023-04-24T05:43:14;19.52;;;5.57;;
64351;SDS011;50680;52.626;-8.668;2023-04-24T05:45:41;20.50;;;5.47;;
64351;SDS011;50680;52.626;-8.668;2023-04-24T05:48:08;23.45;;;5.53;;
64351;SDS011;50680;52.626;-8.668;2023-04-24T05:50:34;19.70;;;5.30;;
64351;SDS011;50680;52.626;-8.668;2023-04-24T05:53:02;21.95;;;5.72;;
64351;SDS011;50680;52.626;-8.668;2023-04-24T05:55:30;19.45;;;5.43;;
64351;SDS011;50680;52.626;-8.668;2023-04-24T05:57:58;16.90;;;5.50;;
64351;SDS011;50680;52.626;-8.668;2023-04-24T06:00:25;16.60;;;5.22;;
64351;SDS011;50680;52.626;-8.668;2023-04-24T06:02:53;19.60;;;5.68;;
64351;SDS011;50680;52.626;-8.668;2023-04-24T06:05:21;16.27;;;5.20;;
64351;SDS011;50680;52.626;-8.668;2023-04-24T06:07:48;20.77;;;5.40;;
64351;SDS011;50680;52.626;-8.668;2023-04-24T06:10:15;16.90;;;6.13;;
64351;SDS011;50680;52.626;-8.668;2023-04-24T06:12:42;14.02;;;5.55;;
64351;SDS011;50680;52.626;-8.668;2023-04-24T06:15:09;18.27;;;5.57;;
64351;SDS011;50680;52.626;-8.668;2023-04-24T06:17:36;13.98;;;5.20;;
64351;SDS011;50680;52.626;-8.668;2023-04-24T06:20:03;13.10;;;4.88;;
64351;SDS011;50680;52.626;-8.668;2023-04-24T06:22:32;16.33;;;5.05;;
64351;SDS011;50680;52.626;-8.668;2023-04-24T06:24:59;13.25;;;5.18;;
64351;SDS011;50680;52.626;-8.668;2023-04-24T06:27:26;13.63;;;4.45;;
64351;SDS011;50680;52.626;-8.668;2023-04-24T06:29:53;9.77;;;4.72;;
64351;SDS011;50680;52.626;-8.668;2023-04-24T06:32:24;14.38;;;3.70;;
64351;SDS011;50680;52.626;-8.668;2023-04-24T06:34:51;9.68;;;3.70;;
64351;SDS011;50680;52.626;-8.668;2023-04-24T06:37:22;11.23;;;3.10;;
64351;SDS011;50680;52.626;-8.668;2023-04-24T06:39:49;7.35;;;2.30;;
64351;SDS011;50680;52.626;-8.668;2023-04-24T06:42:16;4.93;;;2.15;;
64351;SDS011;50680;52.626;-8.668;2023-04-24T06:44:43;10.02;;;2.20;;
64351;SDS011;50680;52.626;-8.668;2023-04-24T06:47:10;3.03;;;1.80;;
64351;SDS011;50680;52.626;-8.668;2023-04-24T06:49:39;2.67;;;1.10;;
64351;SDS011;50680;52.626;-8.668;2023-04-24T06:52:07;1.45;;;1.10;;
64351;SDS011;50680;52.626;-8.668;2023-04-24T06:54:34;2.65;;;0.98;;
64351;SDS011;50680;52.626;-8.668;2023-04-24T06:57:00;2.72;;;1.20;;
64351;SDS011;50680;52.626;-8.668;2023-04-24T06:59:29;2.40;;;0.65;;
64351;SDS011;50680;52.626;-8.668;2023-04-24T07:01:56;2.55;;;0.70;;
64351;SDS011;50680;52.626;-8.668;2023-04-24T07:04:23;0.60;;;0.60;;
64351;SDS011;50680;52.626;-8.668;2023-04-24T07:06:52;5.60;;;0.93;;
64351;SDS011;50680;52.626;-8.668;2023-04-24T07:09:22;1.98;;;0.60;;
64351;SDS011;50680;52.626;-8.668;2023-04-24T07:11:50;2.03;;;0.77;;
64351;SDS011;50680;52.626;-8.668;2023-04-24T07:14:20;1.25;;;0.70;;
64351;SDS011;50680;52.626;-8.668;2023-04-24T07:16:47;1.70;;;0.68;;
64351;SDS011;50680;52.626;-8.668;2023-04-24T07:19:14;6.10;;;0.90;;
64351;SDS011;50680;52.626;-8.668;2023-04-24T07:21:41;2.00;;;0.50;;
64351;SDS011;50680;52.626;-8.668;2023-04-24T07:24:08;1.73;;;0.52;;
64351;SDS011;50680;52.626;-8.668;2023-04-24T07:26:39;5.35;;;1.00;;
64351;SDS011;50680;52.626;-8.668;2023-04-24T07:29:06;4.38;;;0.80;;
64351;SDS011;50680;52.626;-8.668;2023-04-24T07:31:34;4.75;;;1.20;;
64351;SDS011;50680;52.626;-8.668;2023-04-24T07:34:01;1.77;;;0.90;;
64351;SDS011;50680;52.626;-8.668;2023-04-24T07:36:27;3.03;;;0.70;;
64351;SDS011;50680;52.626;-8.668;2023-04-24T07:38:54;3.05;;;0.82;;
64351;SDS011;50680;52.626;-8.668;2023-04-24T07:41:22;2.92;;;1.10;;
64351;SDS011;50680;52.626;-8.668;2023-04-24T07:43:50;2.70;;;0.88;;
64351;SDS011;50680;52.626;-8.668;2023-04-24T07:46:18;2.80;;;1.02;;
64351;SDS011;50680;52.626;-8.668;2023-04-24T07:48:46;2.13;;;0.90;;
64351;SDS011;50680;52.626;-8.668;2023-04-24T07:51:30;4.82;;;1.05;;
64351;SDS011;50680;52.626;-8.668;2023-04-24T07:53:58;1.85;;;1.00;;
64351;SDS011;50680;52.626;-8.668;2023-04-24T07:56:25;1.98;;;1.02;;
64351;SDS011;50680;52.626;-8.668;2023-04-24T07:58:53;1.20;;;0.90;;
64351;SDS011;50680;52.626;-8.668;2023-04-24T08:01:20;3.95;;;0.90;;
64351;SDS011;50680;52.626;-8.668;2023-04-24T08:03:46;2.00;;;0.75;;
64351;SDS011;50680;52.626;-8.668;2023-04-24T08:06:14;1.10;;;0.73;;
64351;SDS011;50680;52.626;-8.668;2023-04-24T08:08:41;1.42;;;0.70;;
64351;SDS011;50680;52.626;-8.668;2023-04-24T08:11:07;1.67;;;0.73;;
64351;SDS011;50680;52.626;-8.668;2023-04-24T08:13:34;1.48;;;0.57;;
64351;SDS011;50680;52.626;-8.668;2023-04-24T08:16:01;1.48;;;0.60;;
64351;SDS011;50680;52.626;-8.668;2023-04-24T08:18:28;2.75;;;0.57;;
64351;SDS011;50680;52.626;-8.668;2023-04-24T08:20:55;0.75;;;0.52;;
64351;SDS011;50680;52.626;-8.668;2023-04-24T08:23:27;1.00;;;0.60;;
64351;SDS011;50680;52.626;-8.668;2023-04-24T08:25:55;1.10;;;0.43;;
64351;SDS011;50680;52.626;-8.668;2023-04-24T08:28:23;2.05;;;0.50;;
64351;SDS011;50680;52.626;-8.668;2023-04-24T08:30:50;0.90;;;0.57;;
64351;SDS011;50680;52.626;-8.668;2023-04-24T08:33:22;0.40;;;0.40;;
64351;SDS011;50680;52.626;-8.668;2023-04-24T08:35:49;0.82;;;0.50;;
64351;SDS011;50680;52.626;-8.668;2023-04-24T08:38:16;1.00;;;0.40;;
64351;SDS011;50680;52.626;-8.668;2023-04-24T08:40:43;1.38;;;0.50;;
64351;SDS011;50680;52.626;-8.668;2023-04-24T08:43:12;0.73;;;0.40;;
64351;SDS011;50680;52.626;-8.668;2023-04-24T08:45:40;0.50;;;0.40;;
64351;SDS011;50680;52.626;-8.668;2023-04-24T08:48:07;1.10;;;0.52;;
64351;SDS011;50680;52.626;-8.668;2023-04-24T08:50:52;0.60;;;0.40;;
64351;SDS011;50680;52.626;-8.668;2023-04-24T08:53:19;0.95;;;0.30;;
64351;SDS011;50680;52.626;-8.668;2023-04-24T08:55:47;0.80;;;0.38;;
64351;SDS011;50680;52.626;-8.668;2023-04-24T08:58:15;2.13;;;0.50;;
64351;SDS011;50680;52.626;-8.668;2023-04-24T09:00:44;0.93;;;0.52;;
64351;SDS011;50680;52.626;-8.668;2023-04-24T09:03:16;2.25;;;0.35;;
64351;SDS011;50680;52.626;-8.668;2023-04-24T09:05:44;2.93;;;0.40;;
64351;SDS011;50680;52.626;-8.668;2023-04-24T09:08:14;1.27;;;0.43;;
64351;SDS011;50680;52.626;-8.668;2023-04-24T09:10:42;1.58;;;0.40;;
64351;SDS011;50680;52.626;-8.668;2023-04-24T09:13:09;1.23;;;0.52;;
64351;SDS011;50680;52.626;-8.668;2023-04-24T09:15:38;2.85;;;0.85;;
64351;SDS011;50680;52.626;-8.668;2023-04-24T09:18:06;1.52;;;0.47;;
64351;SDS011;50680;52.626;-8.668;2023-04-24T09:20:33;2.30;;;0.43;;
64351;SDS011;50680;52.626;-8.668;2023-04-24T09:23:02;1.58;;;0.82;;
64351;SDS011;50680;52.626;-8.668;2023-04-24T09:25:33;0.65;;;0.40;;
64351;SDS011;50680;52.626;-8.668;2023-04-24T09:28:02;1.85;;;0.75;;
64351;SDS011;50680;52.626;-8.668;2023-04-24T09:30:30;0.98;;;0.47;;
64351;SDS011;50680;52.626;-8.668;2023-04-24T09:33:15;1.73;;;0.30;;
64351;SDS011;50680;52.626;-8.668;2023-04-24T09:35:43;0.70;;;0.30;;
64351;SDS011;50680;52.626;-8.668;2023-04-24T09:38:16;0.40;;;0.20;;
64351;SDS011;50680;52.626;-8.668;2023-04-24T09:40:43;2.40;;;1.27;;
64351;SDS011;50680;52.626;-8.668;2023-04-24T09:43:10;0.43;;;0.20;;
64351;SDS011;50680;52.626;-8.668;2023-04-24T09:45:38;1.90;;;0.17;;
64351;SDS011;50680;52.626;-8.668;2023-04-24T09:48:09;0.30;;;0.20;;
64351;SDS011;50680;52.626;-8.668;2023-04-24T09:50:37;0.20;;;0.10;;
64351;SDS011;50680;52.626;-8.668;2023-04-24T09:53:04;0.10;;;0.10;;
64351;SDS011;50680;52.626;-8.668;2023-04-24T09:58:05;1.38;;;0.20;;
64351;SDS011;50680;52.626;-8.668;2023-04-24T10:00:34;0.40;;;0.17;;
64351;SDS011;50680;52.626;-8.668;2023-04-24T10:03:02;0.20;;;0.20;;
64351;SDS011;50680;52.626;-8.668;2023-04-24T10:05:31;0.30;;;0.30;;
64351;SDS011;50680;52.626;-8.668;2023-04-24T10:08:09;0.30;;;0.20;;
64351;SDS011;50680;52.626;-8.668;2023-04-24T10:10:38;0.10;;;0.10;;
64351;SDS011;50680;52.626;-8.668;2023-04-24T10:13:13;0.20;;;0.20;;
64351;SDS011;50680;52.626;-8.668;2023-04-24T10:15:41;3.15;;;0.45;;
64351;SDS011;50680;52.626;-8.668;2023-04-24T10:18:08;0.57;;;0.30;;
64351;SDS011;50680;52.626;-8.668;2023-04-24T10:20:38;0.50;;;0.30;;
64351;SDS011;50680;52.626;-8.668;2023-04-24T10:23:06;0.47;;;0.32;;
64351;SDS011;50680;52.626;-8.668;2023-04-24T10:25:34;1.23;;;0.30;;
64351;SDS011;50680;52.626;-8.668;2023-04-24T10:28:03;0.40;;;0.30;;
64351;SDS011;50680;52.626;-8.668;2023-04-24T10:30:34;0.30;;;0.30;;
64351;SDS011;50680;52.626;-8.668;2023-04-24T10:33:04;1.88;;;0.40;;
64351;SDS011;50680;52.626;-8.668;2023-04-24T10:35:37;1.95;;;0.60;;
64351;SDS011;50680;52.626;-8.668;2023-04-24T10:38:09;0.52;;;0.40;;
64351;SDS011;50680;52.626;-8.668;2023-04-24T10:40:38;1.93;;;0.60;;
64351;SDS011;50680;52.626;-8.668;2023-04-24T10:43:06;0.47;;;0.40;;
64351;SDS011;50680;52.626;-8.668;2023-04-24T10:45:36;0.50;;;0.30;;
64351;SDS011;50680;52.626;-8.668;2023-04-24T10:48:04;0.90;;;0.60;;
64351;SDS011;50680;52.626;-8.668;2023-04-24T10:53:15;1.58;;;0.50;;
64351;SDS011;50680;52.626;-8.668;2023-04-24T10:58:21;1.00;;;0.30;;
64351;SDS011;50680;52.626;-8.668;2023-04-24T11:00:58;0.88;;;0.60;;
64351;SDS011;50680;52.626;-8.668;2023-04-24T11:03:30;1.02;;;0.50;;
64351;SDS011;50680;52.626;-8.668;2023-04-24T11:06:08;0.82;;;0.50;;
64351;SDS011;50680;52.626;-8.668;2023-04-24T11:08:42;0.95;;;0.43;;
64351;SDS011;50680;52.626;-8.668;2023-04-24T11:16:25;0.93;;;0.60;;
64351;SDS011;50680;52.626;-8.668;2023-04-24T11:19:00;0.70;;;0.60;;
64351;SDS011;50680;52.626;-8.668;2023-04-24T11:21:38;1.67;;;0.68;;
64351;SDS011;50680;52.626;-8.668;2023-04-24T11:24:53;0.93;;;0.57;;
64351;SDS011;50680;52.626;-8.668;2023-04-24T11:27:22;0.60;;;0.50;;
64351;SDS011;50680;52.626;-8.668;2023-04-24T11:35:00;0.60;;;0.57;;
64351;SDS011;50680;52.626;-8.668;2023-04-24T11:37:36;0.82;;;0.52;;
64351;SDS011;50680;52.626;-8.668;2023-04-24T11:42:35;1.50;;;0.70;;
64351;SDS011;50680;52.626;-8.668;2023-04-24T11:45:09;1.38;;;0.70;;
64351;SDS011;50680;52.626;-8.668;2023-04-24T11:47:41;8.45;;;0.95;;
64351;SDS011;50680;52.626;-8.668;2023-04-24T11:50:10;1.30;;;0.60;;
64351;SDS011;50680;52.626;-8.668;2023-04-24T11:52:39;1.50;;;0.75;;
64351;SDS011;50680;52.626;-8.668;2023-04-24T11:55:08;2.40;;;0.70;;
64351;SDS011;50680;52.626;-8.668;2023-04-24T11:57:56;0.93;;;0.70;;
64351;SDS011;50680;52.626;-8.668;2023-04-24T12:00:28;0.70;;;0.60;;
64351;SDS011;50680;52.626;-8.668;2023-04-24T12:03:06;1.77;;;0.75;;
64351;SDS011;50680;52.626;-8.668;2023-04-24T12:05:35;2.17;;;0.80;;
64351;SDS011;50680;52.626;-8.668;2023-04-24T12:08:02;3.72;;;0.93;;
64351;SDS011;50680;52.626;-8.668;2023-04-24T12:10:30;2.53;;;0.90;;
64351;SDS011;50680;52.626;-8.668;2023-04-24T12:12:58;1.00;;;0.80;;
64351;SDS011;50680;52.626;-8.668;2023-04-24T12:15:26;2.42;;;1.02;;
64351;SDS011;50680;52.626;-8.668;2023-04-24T12:17:54;2.47;;;0.80;;
64351;SDS011;50680;52.626;-8.668;2023-04-24T12:20:27;6.97;;;0.88;;
64351;SDS011;50680;52.626;-8.668;2023-04-24T12:22:56;1.80;;;0.93;;
64351;SDS011;50680;52.626;-8.668;2023-04-24T12:25:33;1.40;;;0.80;;
64351;SDS011;50680;52.626;-8.668;2023-04-24T12:30:41;3.65;;;1.00;;
64351;SDS011;50680;52.626;-8.668;2023-04-24T12:33:18;4.70;;;1.15;;
64351;SDS011;50680;52.626;-8.668;2023-04-24T12:35:48;1.23;;;0.80;;
64351;SDS011;50680;52.626;-8.668;2023-04-24T12:38:22;3.35;;;1.00;;
64351;SDS011;50680;52.626;-8.668;2023-04-24T12:41:04;3.45;;;0.88;;
64351;SDS011;50680;52.626;-8.668;2023-04-24T12:45:59;2.95;;;0.90;;
64351;SDS011;50680;52.626;-8.668;2023-04-24T12:48:28;1.83;;;0.65;;
64351;SDS011;50680;52.626;-8.668;2023-04-24T12:50:58;3.30;;;0.90;;
64351;SDS011;50680;52.626;-8.668;2023-04-24T12:53:27;1.48;;;0.77;;
64351;SDS011;50680;52.626;-8.668;2023-04-24T12:55:58;3.60;;;1.27;;
64351;SDS011;50680;52.626;-8.668;2023-04-24T12:58:25;2.80;;;1.00;;
64351;SDS011;50680;52.626;-8.668;2023-04-24T13:00:52;2.22;;;1.10;;
64351;SDS011;50680;52.626;-8.668;2023-04-24T13:03:19;3.40;;;0.90;;
64351;SDS011;50680;52.626;-8.668;2023-04-24T13:05:46;2.10;;;0.85;;
64351;SDS011;50680;52.626;-8.668;2023-04-24T13:08:13;4.30;;;0.90;;
64351;SDS011;50680;52.626;-8.668;2023-04-24T13:10:40;3.35;;;1.63;;
64351;SDS011;50680;52.626;-8.668;2023-04-24T13:13:07;5.50;;;1.40;;
64351;SDS011;50680;52.626;-8.668;2023-04-24T13:15:35;3.78;;;1.20;;
64351;SDS011;50680;52.626;-8.668;2023-04-24T13:18:02;3.50;;;1.30;;
64351;SDS011;50680;52.626;-8.668;2023-04-24T13:20:29;6.05;;;1.58;;
64351;SDS011;50680;52.626;-8.668;2023-04-24T13:22:55;2.45;;;1.23;;
64351;SDS011;50680;52.626;-8.668;2023-04-24T13:25:22;3.47;;;1.35;;
64351;SDS011;50680;52.626;-8.668;2023-04-24T13:27:49;3.45;;;1.30;;
64351;SDS011;50680;52.626;-8.668;2023-04-24T13:30:17;5.20;;;1.38;;
64351;SDS011;50680;52.626;-8.668;2023-04-24T13:32:44;3.08;;;1.05;;
64351;SDS011;50680;52.626;-8.668;2023-04-24T13:35:11;3.55;;;1.10;;
64351;SDS011;50680;52.626;-8.668;2023-04-24T13:37:38;3.58;;;1.08;;
64351;SDS011;50680;52.626;-8.668;2023-04-24T13:40:05;8.68;;;1.20;;
64351;SDS011;50680;52.626;-8.668;2023-04-24T13:42:33;2.42;;;0.80;;
64351;SDS011;50680;52.626;-8.668;2023-04-24T13:45:00;2.28;;;0.80;;
64351;SDS011;50680;52.626;-8.668;2023-04-24T13:47:39;4.00;;;0.80;;
64351;SDS011;50680;52.626;-8.668;2023-04-24T13:50:08;3.88;;;0.70;;
64351;SDS011;50680;52.626;-8.668;2023-04-24T13:52:35;2.08;;;1.05;;
64351;SDS011;50680;52.626;-8.668;2023-04-24T13:55:02;3.47;;;0.82;;
64351;SDS011;50680;52.626;-8.668;2023-04-24T13:57:29;1.52;;;0.80;;
64351;SDS011;50680;52.626;-8.668;2023-04-24T13:59:57;3.55;;;0.73;;
64351;SDS011;50680;52.626;-8.668;2023-04-24T14:02:28;4.33;;;0.90;;
64351;SDS011;50680;52.626;-8.668;2023-04-24T14:04:55;1.48;;;0.70;;
64351;SDS011;50680;52.626;-8.668;2023-04-24T14:07:22;4.05;;;0.95;;
64351;SDS011;50680;52.626;-8.668;2023-04-24T14:09:49;1.85;;;0.88;;
64351;SDS011;50680;52.626;-8.668;2023-04-24T14:12:16;3.45;;;0.60;;
64351;SDS011;50680;52.626;-8.668;2023-04-24T14:14:46;3.60;;;1.10;;
64351;SDS011;50680;52.626;-8.668;2023-04-24T14:17:14;1.85;;;0.70;;
64351;SDS011;50680;52.626;-8.668;2023-04-24T14:19:41;3.90;;;0.90;;
64351;SDS011;50680;52.626;-8.668;2023-04-24T14:22:08;2.20;;;1.00;;
64351;SDS011;50680;52.626;-8.668;2023-04-24T14:24:34;5.05;;;0.90;;
64351;SDS011;50680;52.626;-8.668;2023-04-24T14:27:02;2.53;;;0.80;;
64351;SDS011;50680;52.626;-8.668;2023-04-24T14:29:29;4.30;;;0.68;;
64351;SDS011;50680;52.626;-8.668;2023-04-24T14:31:57;2.55;;;0.80;;
64351;SDS011;50680;52.626;-8.668;2023-04-24T14:34:24;1.83;;;0.82;;
64351;SDS011;50680;52.626;-8.668;2023-04-24T14:36:51;3.50;;;0.85;;
64351;SDS011;50680;52.626;-8.668;2023-04-24T14:39:18;1.90;;;0.85;;
64351;SDS011;50680;52.626;-8.668;2023-04-24T14:41:45;2.20;;;0.80;;
64351;SDS011;50680;52.626;-8.668;2023-04-24T14:44:12;4.38;;;0.88;;
64351;SDS011;50680;52.626;-8.668;2023-04-24T14:46:39;2.45;;;0.82;;
64351;SDS011;50680;52.626;-8.668;2023-04-24T14:49:06;5.45;;;1.00;;
64351;SDS011;50680;52.626;-8.668;2023-04-24T14:51:36;4.47;;;0.70;;
64351;SDS011;50680;52.626;-8.668;2023-04-24T14:54:03;3.67;;;1.00;;
64351;SDS011;50680;52.626;-8.668;2023-04-24T14:56:30;2.90;;;0.90;;
64351;SDS011;50680;52.626;-8.668;2023-04-24T14:58:56;3.38;;;0.80;;
64351;SDS011;50680;52.626;-8.668;2023-04-24T15:01:23;3.00;;;0.80;;
64351;SDS011;50680;52.626;-8.668;2023-04-24T15:03:50;6.00;;;0.90;;